createdAt,value
2023-07-18T00:01:03.552Z,74.41
2023-07-18T00:03:30.081Z,73.07
2023-07-18T00:05:56.569Z,72.94
2023-07-18T00:08:23.346Z,73.17
2023-07-18T00:10:49.960Z,74.44
2023-07-18T00:13:16.270Z,73.93
2023-07-18T00:15:42.717Z,73.92
2023-07-18T00:18:09.224Z,74.79
2023-07-18T00:20:35.827Z,74.24
2023-07-18T00:23:02.316Z,74.44
2023-07-18T00:25:28.841Z,74.92
2023-07-18T00:27:55.569Z,75.50
2023-07-18T00:30:22.238Z,74.65
2023-07-18T00:32:48.717Z,74.88
2023-07-18T00:35:15.323Z,74.83
2023-07-18T00:37:41.745Z,75.65
2023-07-18T00:40:08.441Z,75.05
2023-07-18T00:42:34.981Z,75.87
2023-07-18T00:45:01.708Z,75.45
2023-07-18T00:47:28.073Z,75.38
2023-07-18T00:49:54.478Z,75.51
2023-07-18T00:52:20.853Z,75.85
2023-07-18T00:54:47.237Z,75.95
2023-07-18T00:57:13.672Z,76.93
2023-07-18T00:59:40.057Z,76.36
2023-07-18T01:02:06.893Z,76.36
2023-07-18T01:04:33.508Z,76.77
2023-07-18T01:06:59.992Z,77.08
2023-07-18T01:09:26.425Z,77.09
2023-07-18T01:11:52.847Z,75.57
2023-07-18T01:14:19.282Z,75.42
2023-07-18T01:16:45.701Z,76.06
2023-07-18T01:19:12.055Z,76.26
2023-07-18T01:21:38.450Z,76.14
2023-07-18T01:24:04.953Z,76.70
2023-07-18T01:26:31.327Z,76.84
2023-07-18T01:28:57.755Z,76.38
2023-07-18T01:31:24.330Z,76.38
2023-07-18T01:33:50.879Z,76.09
2023-07-18T01:36:17.487Z,77.73
2023-07-18T01:38:43.931Z,76.96
2023-07-18T01:41:10.486Z,76.83
2023-07-18T01:43:36.931Z,77.27
2023-07-18T01:46:03.523Z,76.22
2023-07-18T01:48:29.959Z,76.59
2023-07-18T01:50:56.540Z,76.85
2023-07-18T01:53:23.096Z,76.58
2023-07-18T01:55:49.552Z,75.74
2023-07-18T01:58:16.139Z,76.35
2023-07-18T02:00:42.585Z,77.10
2023-07-18T02:03:11.494Z,76.73
2023-07-18T02:05:37.973Z,76.42
2023-07-18T02:08:04.565Z,76.28
2023-07-18T02:10:31.162Z,75.55
2023-07-18T02:12:57.596Z,76.02
2023-07-18T02:15:24.156Z,76.74
2023-07-18T02:17:50.655Z,76.63
2023-07-18T02:20:17.045Z,75.99
2023-07-18T02:22:43.570Z,76.04
2023-07-18T02:25:10.102Z,75.46
2023-07-18T02:27:36.759Z,75.22
2023-07-18T02:30:03.131Z,75.61
2023-07-18T02:32:29.501Z,74.88
2023-07-18T02:34:56.019Z,74.93
2023-07-18T02:37:22.396Z,75.78
2023-07-18T02:39:48.842Z,75.97
2023-07-18T02:42:15.308Z,75.91
2023-07-18T02:44:42.046Z,76.32
2023-07-18T02:47:08.377Z,76.30
2023-07-18T02:49:34.748Z,75.83
2023-07-18T02:52:01.114Z,76.31
2023-07-18T02:54:27.852Z,77.20
2023-07-18T02:56:54.326Z,76.39
2023-07-18T02:59:20.721Z,76.32
2023-07-18T03:01:47.315Z,76.51
2023-07-18T03:04:13.916Z,76.20
2023-07-18T03:06:40.329Z,77.06
2023-07-18T03:09:06.761Z,76.76
2023-07-18T03:11:33.224Z,77.57
2023-07-18T03:14:00.119Z,77.65
2023-07-18T03:16:26.526Z,77.10
2023-07-18T03:18:53.060Z,78.34
2023-07-18T03:21:19.706Z,77.85
2023-07-18T03:23:46.364Z,78.53
2023-07-18T03:26:12.691Z,77.88
2023-07-18T03:28:39.261Z,78.24
2023-07-18T03:31:05.723Z,78.62
2023-07-18T03:33:32.052Z,78.45
2023-07-18T03:35:58.465Z,78.76
2023-07-18T03:38:24.930Z,78.84
2023-07-18T03:40:51.307Z,78.45
2023-07-18T03:43:17.834Z,78.55
2023-07-18T03:45:44.278Z,78.23
2023-07-18T03:48:10.908Z,77.54
2023-07-18T03:50:37.288Z,77.01
2023-07-18T03:53:03.901Z,77.62
2023-07-18T03:55:30.339Z,77.44
2023-07-18T03:57:56.664Z,77.21
2023-07-18T04:00:23.014Z,77.64
2023-07-18T04:02:49.510Z,78.02
2023-07-18T04:05:16.349Z,77.09
2023-07-18T04:07:42.870Z,77.49
2023-07-18T04:10:09.216Z,77.15
2023-07-18T04:12:35.572Z,77.28
2023-07-18T04:15:02.021Z,77.41
2023-07-18T04:17:28.488Z,77.44
2023-07-18T04:19:54.956Z,77.44
2023-07-18T04:22:21.430Z,77.72
2023-07-18T04:24:48.168Z,77.64
2023-07-18T04:27:14.499Z,77.97
2023-07-18T04:29:40.939Z,78.52
2023-07-18T04:32:07.463Z,78.38
2023-07-18T04:34:34.256Z,79.02
2023-07-18T04:37:00.826Z,78.24
2023-07-18T04:39:27.372Z,78.56
2023-07-18T04:41:55.562Z,78.19
2023-07-18T04:44:22.839Z,77.77
2023-07-18T04:46:49.281Z,76.55
2023-07-18T04:49:16.041Z,76.86
2023-07-18T04:51:42.462Z,76.30
2023-07-18T04:54:09.054Z,76.37
2023-07-18T04:56:35.581Z,75.93
2023-07-18T04:59:02.270Z,76.67
2023-07-18T05:01:28.844Z,76.71
2023-07-18T05:03:57.817Z,76.36
2023-07-18T05:06:24.874Z,76.67
2023-07-18T05:08:51.455Z,76.69
2023-07-18T05:11:18.204Z,77.04
2023-07-18T05:13:44.991Z,76.46
2023-07-18T05:16:11.506Z,76.74
2023-07-18T05:18:37.939Z,77.20
2023-07-18T05:21:04.377Z,76.17
2023-07-18T05:23:30.919Z,77.04
2023-07-18T05:25:57.688Z,76.63
2023-07-18T05:28:24.168Z,76.63
2023-07-18T05:30:50.529Z,76.12
2023-07-18T05:33:16.887Z,75.31
2023-07-18T05:35:43.270Z,74.75
2023-07-18T05:38:09.669Z,74.44
2023-07-18T05:40:36.049Z,74.74
2023-07-18T05:43:02.383Z,75.51
2023-07-18T05:45:28.750Z,74.96
2023-07-18T05:47:55.174Z,75.36
2023-07-18T05:50:21.573Z,74.03
2023-07-18T05:52:47.945Z,73.29
2023-07-18T05:55:14.383Z,73.55
2023-07-18T05:57:40.745Z,73.20
2023-07-18T06:00:07.209Z,73.64
2023-07-18T06:02:33.791Z,73.49
2023-07-18T06:05:00.124Z,74.16
2023-07-18T06:07:26.446Z,74.09
2023-07-18T06:09:52.852Z,73.70
2023-07-18T06:12:19.179Z,74.96
2023-07-18T06:14:45.554Z,75.37
2023-07-18T06:17:12.058Z,75.59
2023-07-18T06:19:38.473Z,73.66
2023-07-18T06:22:04.873Z,73.73
2023-07-18T06:24:31.253Z,73.57
2023-07-18T06:26:57.642Z,73.41
2023-07-18T06:29:23.970Z,72.48
2023-07-18T06:31:50.338Z,73.02
2023-07-18T06:34:16.770Z,71.99
2023-07-18T06:36:43.221Z,71.88
2023-07-18T06:39:09.670Z,71.96
2023-07-18T06:41:36.049Z,71.23
2023-07-18T06:44:02.379Z,71.74
2023-07-18T06:46:28.784Z,69.74
2023-07-18T06:48:55.101Z,70.98
2023-07-18T06:51:21.599Z,70.30
2023-07-18T06:53:48.095Z,68.76
2023-07-18T06:56:14.430Z,68.68
2023-07-18T06:58:40.773Z,68.19
2023-07-18T07:01:07.117Z,67.70
2023-07-18T07:03:33.650Z,67.93
2023-07-18T07:06:00.009Z,67.25
2023-07-18T07:08:26.342Z,64.22
2023-07-18T07:10:52.647Z,63.80
2023-07-18T07:13:19.053Z,64.03
2023-07-18T07:15:45.407Z,63.51
2023-07-18T07:18:11.714Z,64.08
2023-07-18T07:20:38.078Z,63.27
2023-07-18T07:23:04.516Z,63.37
2023-07-18T07:25:30.906Z,62.75
2023-07-18T07:27:57.248Z,61.92
2023-07-18T07:30:23.559Z,61.94
2023-07-18T07:32:49.950Z,63.40
2023-07-18T07:35:16.285Z,61.29
2023-07-18T07:37:42.610Z,60.12
2023-07-18T07:40:08.931Z,60.89
2023-07-18T07:42:35.305Z,59.74
2023-07-18T07:45:01.635Z,59.28
2023-07-18T07:47:28.117Z,59.57
2023-07-18T07:55:15.999Z,58.84
2023-07-18T07:57:42.974Z,59.95
2023-07-18T08:00:09.512Z,59.31
2023-07-18T08:02:36.080Z,58.52
2023-07-18T08:05:02.894Z,58.68
2023-07-18T08:07:29.352Z,56.34
2023-07-18T08:09:56.023Z,57.61
2023-07-18T08:12:22.595Z,56.81
2023-07-18T08:14:51.178Z,57.42
2023-07-18T08:17:18.033Z,56.80
2023-07-18T08:19:47.039Z,56.79
2023-07-18T08:22:15.746Z,54.22
2023-07-18T08:24:42.190Z,55.39
2023-07-18T08:27:08.584Z,55.14
2023-07-18T08:29:35.143Z,54.33
2023-07-18T08:32:02.348Z,53.05
2023-07-18T08:34:29.155Z,53.50
2023-07-18T08:36:55.542Z,55.43
2023-07-18T08:39:21.927Z,54.43
2023-07-18T08:41:48.295Z,52.80
2023-07-18T08:44:15.584Z,54.20
2023-07-18T08:46:42.025Z,52.57
2023-07-18T08:49:08.938Z,49.78
2023-07-18T08:51:35.374Z,50.31
2023-07-18T08:54:01.771Z,50.78
2023-07-18T08:56:28.210Z,48.55
2023-07-18T08:58:54.531Z,50.58
2023-07-18T09:01:21.028Z,55.38
2023-07-18T09:03:47.623Z,56.87
2023-07-18T09:06:14.038Z,57.81
2023-07-18T09:19:23.252Z,53.63
2023-07-18T10:23:44.206Z,47.46
2023-07-18T10:26:11.095Z,47.40
2023-07-18T10:28:37.580Z,46.30
2023-07-18T10:31:04.018Z,44.97
2023-07-18T10:33:30.805Z,46.68
2023-07-18T10:35:57.592Z,46.55
2023-07-18T10:38:23.984Z,48.91
2023-07-18T10:40:50.579Z,49.66
2023-07-18T10:43:16.960Z,50.96
2023-07-18T10:45:43.665Z,50.58
2023-07-18T10:48:10.168Z,49.82
2023-07-18T10:50:36.506Z,49.72
2023-07-18T10:53:02.931Z,47.43
2023-07-18T10:55:29.312Z,46.66
2023-07-18T10:57:55.917Z,47.47
2023-07-18T11:00:22.367Z,48.11
2023-07-18T11:02:48.949Z,48.66
2023-07-18T11:05:15.314Z,47.01
2023-07-18T11:07:41.939Z,45.98
2023-07-18T11:10:08.336Z,48.03
2023-07-18T11:12:34.743Z,47.54
2023-07-18T11:15:01.834Z,45.66
2023-07-18T11:17:28.201Z,46.02
2023-07-18T11:19:54.596Z,44.91
2023-07-18T11:22:21.329Z,45.00
2023-07-18T11:24:47.700Z,44.68
2023-07-18T11:27:14.063Z,45.59
2023-07-18T11:29:40.410Z,45.12
2023-07-18T11:32:06.978Z,44.58
2023-07-18T11:34:33.740Z,44.03
2023-07-18T11:37:01.168Z,42.50
2023-07-18T11:39:27.591Z,43.13
2023-07-18T11:41:54.129Z,45.81
2023-07-18T11:44:20.750Z,43.64
2023-07-18T11:46:47.787Z,45.88
2023-07-18T11:49:14.186Z,46.84
2023-07-18T11:51:40.550Z,46.06
2023-07-18T11:54:06.937Z,47.06
2023-07-18T11:56:33.281Z,48.29
2023-07-18T11:58:59.701Z,47.96
2023-07-18T12:01:26.172Z,48.22
2023-07-18T12:03:52.738Z,47.83
2023-07-18T12:06:19.732Z,47.26
2023-07-18T12:08:46.356Z,48.27
2023-07-18T12:11:12.748Z,48.07
2023-07-18T12:13:39.202Z,48.13
2023-07-18T12:16:05.561Z,48.31
2023-07-18T12:18:32.889Z,46.87
2023-07-18T12:20:59.287Z,45.82
2023-07-18T12:23:25.616Z,45.91
2023-07-18T12:28:22.263Z,46.79
2023-07-18T12:30:48.644Z,48.12
2023-07-18T12:33:15.103Z,47.66
2023-07-18T12:35:41.451Z,49.08
2023-07-18T12:46:06.900Z,49.60
2023-07-18T12:48:33.370Z,48.99
2023-07-18T12:50:59.720Z,49.07
2023-07-18T12:53:26.042Z,48.81
2023-07-18T12:55:52.373Z,49.11
2023-07-18T12:58:18.738Z,49.10
2023-07-18T13:00:45.121Z,48.60
2023-07-18T13:03:11.815Z,48.47
2023-07-18T13:05:38.331Z,48.74
2023-07-18T13:08:04.739Z,49.53
2023-07-18T13:10:31.109Z,49.20
2023-07-18T13:12:57.504Z,49.49
2023-07-18T13:15:24.110Z,50.47
2023-07-18T13:17:50.497Z,50.39
2023-07-18T13:20:17.876Z,49.92
2023-07-18T13:22:44.390Z,49.59
2023-07-18T13:25:12.921Z,49.09
2023-07-18T13:27:42.151Z,48.12
2023-07-18T13:30:10.191Z,47.53
2023-07-18T13:32:36.666Z,46.25
2023-07-18T13:35:03.086Z,50.89
2023-07-18T13:37:30.155Z,54.50
2023-07-18T13:39:57.581Z,59.25
2023-07-18T13:42:24.173Z,60.48
2023-07-18T13:44:51.214Z,61.66
2023-07-18T13:47:17.840Z,62.25
2023-07-18T13:52:13.484Z,60.35
2023-07-18T13:54:40.223Z,60.09
2023-07-18T13:57:07.653Z,61.87
2023-07-18T13:59:38.538Z,61.04
2023-07-18T14:02:05.116Z,61.23
2023-07-18T14:04:31.623Z,58.85
2023-07-18T14:06:59.482Z,58.67
2023-07-18T14:09:25.817Z,61.65
2023-07-18T14:11:53.210Z,62.01
2023-07-18T14:14:21.051Z,61.74
2023-07-18T14:16:49.071Z,61.15
2023-07-18T14:19:15.636Z,61.97
2023-07-18T14:24:20.073Z,62.36
2023-07-18T14:26:46.593Z,61.16
2023-07-18T14:29:13.001Z,60.81
2023-07-18T14:31:39.459Z,60.43
2023-07-18T14:34:07.350Z,57.72
2023-07-18T14:36:34.234Z,58.47
2023-07-18T14:39:00.910Z,59.80
2023-07-18T14:41:27.792Z,59.02
2023-07-18T14:43:56.691Z,58.87
2023-07-18T14:46:23.532Z,58.82
2023-07-18T14:48:50.314Z,56.83
2023-07-18T14:51:18.955Z,57.12
2023-07-18T14:53:46.006Z,55.24
2023-07-18T14:56:12.384Z,56.18
2023-07-18T14:58:38.763Z,55.02
2023-07-18T15:01:06.292Z,54.83
2023-07-18T15:03:32.767Z,54.32
2023-07-18T15:05:59.204Z,54.74
2023-07-18T15:08:28.348Z,53.97
2023-07-18T15:10:55.100Z,52.50
2023-07-18T15:13:21.715Z,50.87
2023-07-18T15:15:48.065Z,52.70
2023-07-18T15:18:14.475Z,54.59
2023-07-18T15:20:40.951Z,52.80
2023-07-18T15:23:07.472Z,52.69
2023-07-18T15:25:34.067Z,52.89
2023-07-18T15:28:00.502Z,52.44
2023-07-18T15:30:27.250Z,53.34
2023-07-18T15:32:53.855Z,53.66
2023-07-18T15:35:20.433Z,54.07
2023-07-18T15:37:47.043Z,54.56
2023-07-18T15:40:13.633Z,53.09
2023-07-18T15:42:40.697Z,52.91
2023-07-18T15:45:07.222Z,53.31
2023-07-18T15:47:34.053Z,54.82
2023-07-18T15:50:00.704Z,56.41
2023-07-18T15:52:27.135Z,54.68
2023-07-18T15:54:53.892Z,54.77
2023-07-18T15:57:22.250Z,53.53
2023-07-18T15:59:48.984Z,54.09
2023-07-18T16:02:15.558Z,54.29
2023-07-18T16:04:41.989Z,55.71
2023-07-18T16:07:08.509Z,53.96
2023-07-18T16:09:34.941Z,55.72
2023-07-18T16:12:01.478Z,56.35
2023-07-18T16:14:27.875Z,56.76
2023-07-18T16:16:54.230Z,56.07
2023-07-18T16:19:20.608Z,56.72
2023-07-18T16:21:47.088Z,56.26
2023-07-18T16:24:13.523Z,56.43
2023-07-18T16:26:39.863Z,55.93
2023-07-18T16:29:06.283Z,55.42
2023-07-18T16:31:32.896Z,55.58
2023-07-18T16:33:59.383Z,55.92
2023-07-18T16:36:25.708Z,55.37
2023-07-18T16:38:53.582Z,57.19
2023-07-18T16:41:20.010Z,58.97
2023-07-18T16:43:46.463Z,59.88
2023-07-18T16:46:12.858Z,60.22
2023-07-18T16:48:39.193Z,59.77
2023-07-18T16:51:05.937Z,59.57
2023-07-18T16:53:38.094Z,59.98
2023-07-18T16:56:09.898Z,60.70
2023-07-18T17:47:25.429Z,58.57
2023-07-18T20:40:17.122Z,69.68
2023-07-18T20:42:43.560Z,70.46
2023-07-18T20:45:09.903Z,69.64
2023-07-18T20:47:36.331Z,70.13
2023-07-18T20:50:02.732Z,70.21
2023-07-18T20:52:29.070Z,69.22
2023-07-18T20:54:55.391Z,71.33
2023-07-18T20:57:21.825Z,71.28
2023-07-18T20:59:48.214Z,72.07
2023-07-18T21:02:14.562Z,71.59
2023-07-18T21:04:40.906Z,71.48
2023-07-18T21:07:07.277Z,70.62
2023-07-18T21:09:33.643Z,69.69
2023-07-18T21:11:59.961Z,69.06
2023-07-18T21:14:28.701Z,70.00
2023-07-18T21:16:55.066Z,70.51
2023-07-18T21:19:21.722Z,70.77
2023-07-18T21:21:48.057Z,70.62
2023-07-18T21:24:14.390Z,70.23
2023-07-18T21:26:40.760Z,69.72
2023-07-18T21:29:07.095Z,69.24
2023-07-18T21:31:33.551Z,68.39
2023-07-18T21:34:00.174Z,67.33
2023-07-18T21:36:26.576Z,67.61
2023-07-18T21:38:52.975Z,68.44
2023-07-18T21:41:19.416Z,68.55
2023-07-18T21:43:45.949Z,68.69
2023-07-18T21:46:12.427Z,69.12
2023-07-18T21:48:38.909Z,69.51
2023-07-18T21:51:05.248Z,69.72
2023-07-18T21:53:31.579Z,70.26
2023-07-18T21:55:57.946Z,69.22
2023-07-18T21:58:24.325Z,68.03
2023-07-18T22:00:51.001Z,68.45
2023-07-18T22:03:18.567Z,67.92
2023-07-18T22:05:45.366Z,68.28
2023-07-18T22:08:11.749Z,68.38
2023-07-18T22:10:38.115Z,68.42
2023-07-18T22:13:04.495Z,70.08
2023-07-18T22:15:30.848Z,70.05
2023-07-18T22:17:58.752Z,70.40
2023-07-18T22:20:28.337Z,70.29
2023-07-18T22:22:54.702Z,68.50
2023-07-18T22:25:21.134Z,68.70
2023-07-18T22:27:47.529Z,69.29
2023-07-18T22:30:13.912Z,69.65
2023-07-18T22:32:40.321Z,69.80
2023-07-18T22:35:06.738Z,70.14
2023-07-18T22:37:34.090Z,70.68
2023-07-18T22:40:00.714Z,70.43
2023-07-18T22:42:27.116Z,69.92
2023-07-18T22:44:53.505Z,70.66
2023-07-18T22:47:19.987Z,70.85
2023-07-18T22:49:48.746Z,70.50
2023-07-18T22:52:15.140Z,70.12
2023-07-18T22:54:41.562Z,69.99
2023-07-18T22:59:34.258Z,69.34
2023-07-18T23:02:00.796Z,68.65
2023-07-18T23:04:27.127Z,67.65
2023-07-18T23:06:53.454Z,67.76
2023-07-18T23:09:19.840Z,69.28
2023-07-18T23:11:46.177Z,68.94
2023-07-18T23:14:12.542Z,69.62
2023-07-18T23:16:38.975Z,69.94
2023-07-18T23:19:05.421Z,69.67
2023-07-18T23:21:32.813Z,70.44
2023-07-18T23:23:59.162Z,69.79
2023-07-18T23:26:25.559Z,69.76
2023-07-18T23:28:51.953Z,70.14
2023-07-18T23:31:18.606Z,70.22
2023-07-18T23:33:45.445Z,70.19
2023-07-18T23:36:11.854Z,70.62
2023-07-18T23:38:38.199Z,70.45
2023-07-18T23:41:04.574Z,70.41
2023-07-18T23:43:30.989Z,70.20
2023-07-18T23:45:57.473Z,70.14
2023-07-18T23:48:23.871Z,69.93
2023-07-18T23:50:50.229Z,69.65
2023-07-18T23:53:16.564Z,69.88
2023-07-18T23:55:42.974Z,70.40
2023-07-18T23:58:09.461Z,69.67
